sensor_id;sensor_type;location;lat;lon;timestamp;P1;durP1;ratioP1;P2;durP2;ratioP2
9224;SDS011;4647;48.072;11.616;2022-12-11T00:01:45;41.37;;;25.77;;
9224;SDS011;4647;48.072;11.616;2022-12-11T00:04:11;41.60;;;26.03;;
9224;SDS011;4647;48.072;11.616;2022-12-11T00:06:39;37.57;;;25.10;;
9224;SDS011;4647;48.072;11.616;2022-12-11T00:09:06;36.87;;;24.97;;
9224;SDS011;4647;48.072;11.616;2022-12-11T00:11:33;41.60;;;25.90;;
9224;SDS011;4647;48.072;11.616;2022-12-11T00:14:00;34.93;;;22.63;;
9224;SDS011;4647;48.072;11.616;2022-12-11T00:16:27;37.63;;;23.60;;
9224;SDS011;4647;48.072;11.616;2022-12-11T00:18:56;41.70;;;24.93;;
9224;SDS011;4647;48.072;11.616;2022-12-11T00:21:22;36.23;;;24.17;;
9224;SDS011;4647;48.072;11.616;2022-12-11T00:23:50;38.73;;;25.03;;
9224;SDS011;4647;48.072;11.616;2022-12-11T00:26:16;35.57;;;23.73;;
9224;SDS011;4647;48.072;11.616;2022-12-11T00:28:43;39.33;;;24.80;;
9224;SDS011;4647;48.072;11.616;2022-12-11T00:31:12;40.37;;;24.93;;
9224;SDS011;4647;48.072;11.616;2022-12-11T00:33:39;38.80;;;24.93;;
9224;SDS011;4647;48.072;11.616;2022-12-11T00:36:11;37.80;;;25.73;;
9224;SDS011;4647;48.072;11.616;2022-12-11T00:38:39;38.77;;;25.20;;
9224;SDS011;4647;48.072;11.616;2022-12-11T00:41:06;39.53;;;24.77;;
9224;SDS011;4647;48.072;11.616;2022-12-11T00:43:33;38.73;;;25.87;;
9224;SDS011;4647;48.072;11.616;2022-12-11T00:46:00;38.03;;;25.80;;
9224;SDS011;4647;48.072;11.616;2022-12-11T00:48:28;38.00;;;25.63;;
9224;SDS011;4647;48.072;11.616;2022-12-11T00:50:55;39.17;;;25.90;;
9224;SDS011;4647;48.072;11.616;2022-12-11T00:53:23;39.33;;;24.63;;
9224;SDS011;4647;48.072;11.616;2022-12-11T00:55:50;35.50;;;23.57;;
9224;SDS011;4647;48.072;11.616;2022-12-11T00:58:17;41.67;;;25.47;;
9224;SDS011;4647;48.072;11.616;2022-12-11T01:00:44;38.20;;;24.33;;
9224;SDS011;4647;48.072;11.616;2022-12-11T01:03:12;36.10;;;24.33;;
9224;SDS011;4647;48.072;11.616;2022-12-11T01:05:40;40.50;;;25.63;;
9224;SDS011;4647;48.072;11.616;2022-12-11T01:08:07;36.20;;;23.50;;
9224;SDS011;4647;48.072;11.616;2022-12-11T01:10:35;36.13;;;23.70;;
9224;SDS011;4647;48.072;11.616;2022-12-11T01:13:02;34.27;;;22.60;;
9224;SDS011;4647;48.072;11.616;2022-12-11T01:15:31;37.20;;;24.57;;
9224;SDS011;4647;48.072;11.616;2022-12-11T01:18:00;37.07;;;22.23;;
9224;SDS011;4647;48.072;11.616;2022-12-11T01:20:26;36.47;;;23.17;;
9224;SDS011;4647;48.072;11.616;2022-12-11T01:22:54;32.93;;;23.17;;
9224;SDS011;4647;48.072;11.616;2022-12-11T01:25:22;33.30;;;22.13;;
9224;SDS011;4647;48.072;11.616;2022-12-11T01:27:50;32.43;;;22.17;;
9224;SDS011;4647;48.072;11.616;2022-12-11T01:30:18;35.37;;;23.10;;
9224;SDS011;4647;48.072;11.616;2022-12-11T01:32:46;37.23;;;23.30;;
9224;SDS011;4647;48.072;11.616;2022-12-11T01:35:14;38.00;;;24.73;;
9224;SDS011;4647;48.072;11.616;2022-12-11T01:37:41;37.73;;;21.77;;
9224;SDS011;4647;48.072;11.616;2022-12-11T01:40:09;32.57;;;21.73;;
9224;SDS011;4647;48.072;11.616;2022-12-11T01:42:38;36.30;;;23.37;;
9224;SDS011;4647;48.072;11.616;2022-12-11T01:47:54;36.60;;;23.63;;
9224;SDS011;4647;48.072;11.616;2022-12-11T01:50:24;40.50;;;23.03;;
9224;SDS011;4647;48.072;11.616;2022-12-11T01:52:52;35.53;;;22.80;;
9224;SDS011;4647;48.072;11.616;2022-12-11T01:55:19;34.23;;;23.30;;
9224;SDS011;4647;48.072;11.616;2022-12-11T01:57:47;33.50;;;23.10;;
9224;SDS011;4647;48.072;11.616;2022-12-11T02:00:16;34.20;;;21.37;;
9224;SDS011;4647;48.072;11.616;2022-12-11T02:02:44;33.67;;;23.30;;
9224;SDS011;4647;48.072;11.616;2022-12-11T02:05:11;31.40;;;21.13;;
9224;SDS011;4647;48.072;11.616;2022-12-11T02:07:39;32.03;;;20.97;;
9224;SDS011;4647;48.072;11.616;2022-12-11T02:10:09;35.77;;;22.70;;
9224;SDS011;4647;48.072;11.616;2022-12-11T02:12:38;34.03;;;21.67;;
9224;SDS011;4647;48.072;11.616;2022-12-11T02:15:11;32.43;;;22.20;;
9224;SDS011;4647;48.072;11.616;2022-12-11T02:17:46;31.33;;;21.40;;
9224;SDS011;4647;48.072;11.616;2022-12-11T02:20:17;30.13;;;20.87;;
9224;SDS011;4647;48.072;11.616;2022-12-11T02:22:55;29.10;;;19.97;;
9224;SDS011;4647;48.072;11.616;2022-12-11T02:25:32;32.43;;;21.80;;
9224;SDS011;4647;48.072;11.616;2022-12-11T02:28:11;29.03;;;19.60;;
9224;SDS011;4647;48.072;11.616;2022-12-11T02:30:43;28.97;;;19.93;;
9224;SDS011;4647;48.072;11.616;2022-12-11T02:33:17;30.67;;;19.63;;
9224;SDS011;4647;48.072;11.616;2022-12-11T02:35:48;29.90;;;19.93;;
9224;SDS011;4647;48.072;11.616;2022-12-11T02:38:17;28.97;;;19.30;;
9224;SDS011;4647;48.072;11.616;2022-12-11T02:40:48;30.10;;;20.50;;
9224;SDS011;4647;48.072;11.616;2022-12-11T02:43:19;28.33;;;19.07;;
9224;SDS011;4647;48.072;11.616;2022-12-11T02:45:48;28.10;;;19.63;;
9224;SDS011;4647;48.072;11.616;2022-12-11T02:48:17;27.37;;;19.60;;
9224;SDS011;4647;48.072;11.616;2022-12-11T02:50:45;29.77;;;19.10;;
9224;SDS011;4647;48.072;11.616;2022-12-11T02:53:16;29.80;;;20.10;;
9224;SDS011;4647;48.072;11.616;2022-12-11T02:55:49;29.67;;;19.67;;
9224;SDS011;4647;48.072;11.616;2022-12-11T02:58:20;28.57;;;19.97;;
9224;SDS011;4647;48.072;11.616;2022-12-11T03:00:48;24.33;;;17.50;;
9224;SDS011;4647;48.072;11.616;2022-12-11T03:03:15;29.07;;;19.67;;
9224;SDS011;4647;48.072;11.616;2022-12-11T03:05:42;28.73;;;19.30;;
9224;SDS011;4647;48.072;11.616;2022-12-11T03:08:10;29.00;;;18.30;;
9224;SDS011;4647;48.072;11.616;2022-12-11T03:10:42;28.43;;;19.97;;
9224;SDS011;4647;48.072;11.616;2022-12-11T03:13:09;27.23;;;18.57;;
9224;SDS011;4647;48.072;11.616;2022-12-11T03:15:40;30.13;;;19.20;;
9224;SDS011;4647;48.072;11.616;2022-12-11T03:18:14;28.60;;;18.53;;
9224;SDS011;4647;48.072;11.616;2022-12-11T03:20:46;25.07;;;18.13;;
9224;SDS011;4647;48.072;11.616;2022-12-11T03:23:21;27.23;;;18.03;;
9224;SDS011;4647;48.072;11.616;2022-12-11T03:25:55;24.97;;;17.70;;
9224;SDS011;4647;48.072;11.616;2022-12-11T03:28:25;29.33;;;18.57;;
9224;SDS011;4647;48.072;11.616;2022-12-11T03:30:56;24.67;;;17.13;;
9224;SDS011;4647;48.072;11.616;2022-12-11T03:33:28;24.30;;;16.50;;
9224;SDS011;4647;48.072;11.616;2022-12-11T03:36:00;26.80;;;17.83;;
9224;SDS011;4647;48.072;11.616;2022-12-11T03:38:30;24.00;;;17.47;;
9224;SDS011;4647;48.072;11.616;2022-12-11T03:41:01;22.77;;;16.43;;
9224;SDS011;4647;48.072;11.616;2022-12-11T03:43:29;24.40;;;16.00;;
9224;SDS011;4647;48.072;11.616;2022-12-11T03:45:59;27.53;;;16.97;;
9224;SDS011;4647;48.072;11.616;2022-12-11T03:48:27;25.03;;;17.30;;
9224;SDS011;4647;48.072;11.616;2022-12-11T03:50:59;23.90;;;15.67;;
9224;SDS011;4647;48.072;11.616;2022-12-11T03:53:27;23.23;;;16.70;;
9224;SDS011;4647;48.072;11.616;2022-12-11T03:55:54;25.33;;;17.43;;
9224;SDS011;4647;48.072;11.616;2022-12-11T03:58:22;23.00;;;16.40;;
9224;SDS011;4647;48.072;11.616;2022-12-11T04:00:49;23.57;;;16.13;;
9224;SDS011;4647;48.072;11.616;2022-12-11T04:03:17;23.77;;;16.63;;
9224;SDS011;4647;48.072;11.616;2022-12-11T04:05:44;24.53;;;16.13;;
9224;SDS011;4647;48.072;11.616;2022-12-11T04:08:12;25.53;;;16.57;;
9224;SDS011;4647;48.072;11.616;2022-12-11T04:10:40;22.87;;;16.03;;
9224;SDS011;4647;48.072;11.616;2022-12-11T04:13:07;21.43;;;14.80;;
9224;SDS011;4647;48.072;11.616;2022-12-11T04:15:35;22.47;;;15.93;;
9224;SDS011;4647;48.072;11.616;2022-12-11T04:18:01;20.73;;;15.00;;
9224;SDS011;4647;48.072;11.616;2022-12-11T04:20:47;23.53;;;15.47;;
9224;SDS011;4647;48.072;11.616;2022-12-11T04:23:32;23.63;;;16.27;;
9224;SDS011;4647;48.072;11.616;2022-12-11T04:26:17;22.40;;;15.53;;
9224;SDS011;4647;48.072;11.616;2022-12-11T04:28:47;22.43;;;16.10;;
9224;SDS011;4647;48.072;11.616;2022-12-11T04:31:16;23.97;;;15.83;;
9224;SDS011;4647;48.072;11.616;2022-12-11T04:33:44;19.87;;;14.80;;
9224;SDS011;4647;48.072;11.616;2022-12-11T04:36:13;22.17;;;14.67;;
9224;SDS011;4647;48.072;11.616;2022-12-11T04:38:40;20.07;;;14.80;;
9224;SDS011;4647;48.072;11.616;2022-12-11T04:41:08;22.97;;;16.97;;
9224;SDS011;4647;48.072;11.616;2022-12-11T04:43:36;22.53;;;16.30;;
9224;SDS011;4647;48.072;11.616;2022-12-11T04:46:04;20.07;;;15.43;;
9224;SDS011;4647;48.072;11.616;2022-12-11T04:48:33;24.47;;;16.67;;
9224;SDS011;4647;48.072;11.616;2022-12-11T04:51:00;22.23;;;16.27;;
9224;SDS011;4647;48.072;11.616;2022-12-11T04:53:29;26.63;;;17.03;;
9224;SDS011;4647;48.072;11.616;2022-12-11T04:55:56;25.50;;;16.13;;
9224;SDS011;4647;48.072;11.616;2022-12-11T04:58:23;22.70;;;15.87;;
9224;SDS011;4647;48.072;11.616;2022-12-11T05:00:51;25.13;;;16.63;;
9224;SDS011;4647;48.072;11.616;2022-12-11T05:03:18;23.23;;;16.30;;
9224;SDS011;4647;48.072;11.616;2022-12-11T05:05:48;23.53;;;16.47;;
9224;SDS011;4647;48.072;11.616;2022-12-11T05:08:16;24.20;;;17.23;;
9224;SDS011;4647;48.072;11.616;2022-12-11T05:10:53;28.47;;;18.40;;
9224;SDS011;4647;48.072;11.616;2022-12-11T05:13:21;25.00;;;17.33;;
9224;SDS011;4647;48.072;11.616;2022-12-11T05:15:47;24.73;;;17.47;;
9224;SDS011;4647;48.072;11.616;2022-12-11T05:18:14;25.77;;;17.70;;
9224;SDS011;4647;48.072;11.616;2022-12-11T05:20:41;26.73;;;18.10;;
9224;SDS011;4647;48.072;11.616;2022-12-11T05:23:08;24.93;;;17.87;;
9224;SDS011;4647;48.072;11.616;2022-12-11T05:25:35;26.73;;;17.87;;
9224;SDS011;4647;48.072;11.616;2022-12-11T05:28:03;28.90;;;18.87;;
9224;SDS011;4647;48.072;11.616;2022-12-11T05:30:31;25.70;;;18.27;;
9224;SDS011;4647;48.072;11.616;2022-12-11T05:32:58;26.73;;;18.23;;
9224;SDS011;4647;48.072;11.616;2022-12-11T05:35:25;27.33;;;18.63;;
9224;SDS011;4647;48.072;11.616;2022-12-11T05:37:51;26.00;;;17.53;;
9224;SDS011;4647;48.072;11.616;2022-12-11T05:40:18;28.67;;;19.13;;
9224;SDS011;4647;48.072;11.616;2022-12-11T05:42:45;28.83;;;19.80;;
9224;SDS011;4647;48.072;11.616;2022-12-11T05:45:13;30.33;;;19.70;;
9224;SDS011;4647;48.072;11.616;2022-12-11T05:47:40;29.23;;;18.47;;
9224;SDS011;4647;48.072;11.616;2022-12-11T05:50:07;28.07;;;18.53;;
9224;SDS011;4647;48.072;11.616;2022-12-11T05:52:34;26.30;;;16.67;;
9224;SDS011;4647;48.072;11.616;2022-12-11T05:55:02;26.13;;;16.60;;
9224;SDS011;4647;48.072;11.616;2022-12-11T05:57:29;28.33;;;16.90;;
9224;SDS011;4647;48.072;11.616;2022-12-11T05:59:56;25.33;;;16.83;;
9224;SDS011;4647;48.072;11.616;2022-12-11T06:02:24;26.37;;;17.50;;
9224;SDS011;4647;48.072;11.616;2022-12-11T06:04:51;25.23;;;17.60;;
9224;SDS011;4647;48.072;11.616;2022-12-11T06:07:17;29.40;;;18.17;;
9224;SDS011;4647;48.072;11.616;2022-12-11T06:09:44;24.80;;;17.10;;
9224;SDS011;4647;48.072;11.616;2022-12-11T06:12:11;25.50;;;17.60;;
9224;SDS011;4647;48.072;11.616;2022-12-11T06:14:38;25.60;;;18.03;;
9224;SDS011;4647;48.072;11.616;2022-12-11T06:17:05;26.63;;;17.83;;
9224;SDS011;4647;48.072;11.616;2022-12-11T06:19:33;22.53;;;16.17;;
9224;SDS011;4647;48.072;11.616;2022-12-11T06:22:00;24.57;;;17.10;;
9224;SDS011;4647;48.072;11.616;2022-12-11T06:24:27;21.50;;;16.20;;
9224;SDS011;4647;48.072;11.616;2022-12-11T06:26:53;24.80;;;17.43;;
9224;SDS011;4647;48.072;11.616;2022-12-11T06:29:20;24.37;;;17.27;;
9224;SDS011;4647;48.072;11.616;2022-12-11T06:31:47;24.77;;;17.17;;
9224;SDS011;4647;48.072;11.616;2022-12-11T06:34:14;24.43;;;17.73;;
9224;SDS011;4647;48.072;11.616;2022-12-11T06:36:42;23.83;;;17.13;;
9224;SDS011;4647;48.072;11.616;2022-12-11T06:39:09;24.70;;;17.17;;
9224;SDS011;4647;48.072;11.616;2022-12-11T06:41:36;27.10;;;17.73;;
9224;SDS011;4647;48.072;11.616;2022-12-11T06:44:03;23.00;;;16.23;;
9224;SDS011;4647;48.072;11.616;2022-12-11T06:46:30;23.97;;;17.07;;
9224;SDS011;4647;48.072;11.616;2022-12-11T06:48:57;25.40;;;17.27;;
9224;SDS011;4647;48.072;11.616;2022-12-11T06:51:23;23.93;;;16.90;;
9224;SDS011;4647;48.072;11.616;2022-12-11T06:53:52;26.63;;;17.43;;
9224;SDS011;4647;48.072;11.616;2022-12-11T06:56:20;24.20;;;16.53;;
9224;SDS011;4647;48.072;11.616;2022-12-11T06:58:48;23.87;;;16.33;;
9224;SDS011;4647;48.072;11.616;2022-12-11T07:01:17;24.50;;;17.33;;
9224;SDS011;4647;48.072;11.616;2022-12-11T07:03:45;23.73;;;17.13;;
9224;SDS011;4647;48.072;11.616;2022-12-11T07:06:12;26.03;;;17.07;;
9224;SDS011;4647;48.072;11.616;2022-12-11T07:08:39;23.73;;;16.43;;
9224;SDS011;4647;48.072;11.616;2022-12-11T07:11:09;25.43;;;18.17;;
9224;SDS011;4647;48.072;11.616;2022-12-11T07:13:37;24.77;;;17.03;;
9224;SDS011;4647;48.072;11.616;2022-12-11T07:16:06;27.13;;;17.10;;
9224;SDS011;4647;48.072;11.616;2022-12-11T07:18:34;26.87;;;18.20;;
9224;SDS011;4647;48.072;11.616;2022-12-11T07:21:01;25.97;;;17.83;;
9224;SDS011;4647;48.072;11.616;2022-12-11T07:23:28;23.20;;;16.53;;
9224;SDS011;4647;48.072;11.616;2022-12-11T07:25:55;24.20;;;17.73;;
9224;SDS011;4647;48.072;11.616;2022-12-11T07:28:24;32.47;;;20.47;;
9224;SDS011;4647;48.072;11.616;2022-12-11T07:30:51;57.47;;;26.87;;
9224;SDS011;4647;48.072;11.616;2022-12-11T07:33:18;43.07;;;21.57;;
9224;SDS011;4647;48.072;11.616;2022-12-11T07:35:44;32.93;;;19.47;;
9224;SDS011;4647;48.072;11.616;2022-12-11T07:38:11;25.50;;;16.77;;
9224;SDS011;4647;48.072;11.616;2022-12-11T07:40:38;23.13;;;16.33;;
9224;SDS011;4647;48.072;11.616;2022-12-11T07:43:05;24.83;;;17.73;;
9224;SDS011;4647;48.072;11.616;2022-12-11T07:45:33;27.67;;;16.80;;
9224;SDS011;4647;48.072;11.616;2022-12-11T07:48:00;26.93;;;17.10;;
9224;SDS011;4647;48.072;11.616;2022-12-11T07:50:27;22.60;;;15.73;;
9224;SDS011;4647;48.072;11.616;2022-12-11T07:52:53;24.60;;;16.80;;
9224;SDS011;4647;48.072;11.616;2022-12-11T07:55:20;24.87;;;17.03;;
9224;SDS011;4647;48.072;11.616;2022-12-11T07:57:47;23.03;;;16.17;;
9224;SDS011;4647;48.072;11.616;2022-12-11T08:00:14;22.50;;;16.17;;
9224;SDS011;4647;48.072;11.616;2022-12-11T08:02:43;24.27;;;16.37;;
9224;SDS011;4647;48.072;11.616;2022-12-11T08:05:10;22.47;;;15.73;;
9224;SDS011;4647;48.072;11.616;2022-12-11T08:07:37;22.30;;;15.60;;
9224;SDS011;4647;48.072;11.616;2022-12-11T08:10:04;23.10;;;16.37;;
9224;SDS011;4647;48.072;11.616;2022-12-11T08:12:31;21.00;;;15.80;;
9224;SDS011;4647;48.072;11.616;2022-12-11T08:14:58;22.33;;;15.90;;
9224;SDS011;4647;48.072;11.616;2022-12-11T08:17:25;21.20;;;15.13;;
9224;SDS011;4647;48.072;11.616;2022-12-11T08:19:54;23.07;;;15.63;;
9224;SDS011;4647;48.072;11.616;2022-12-11T08:22:21;19.73;;;13.33;;
9224;SDS011;4647;48.072;11.616;2022-12-11T08:24:47;23.97;;;17.17;;
9224;SDS011;4647;48.072;11.616;2022-12-11T08:27:14;22.47;;;15.87;;
9224;SDS011;4647;48.072;11.616;2022-12-11T08:29:41;21.17;;;15.43;;
9224;SDS011;4647;48.072;11.616;2022-12-11T08:32:08;21.27;;;15.37;;
9224;SDS011;4647;48.072;11.616;2022-12-11T08:34:35;23.07;;;16.10;;
9224;SDS011;4647;48.072;11.616;2022-12-11T08:37:03;20.50;;;14.43;;
9224;SDS011;4647;48.072;11.616;2022-12-11T08:39:30;22.87;;;15.20;;
9224;SDS011;4647;48.072;11.616;2022-12-11T08:41:57;21.23;;;15.10;;
9224;SDS011;4647;48.072;11.616;2022-12-11T08:44:24;21.37;;;14.93;;
9224;SDS011;4647;48.072;11.616;2022-12-11T08:46:52;18.60;;;13.63;;
9224;SDS011;4647;48.072;11.616;2022-12-11T08:49:18;19.57;;;13.70;;
9224;SDS011;4647;48.072;11.616;2022-12-11T08:51:45;19.50;;;13.90;;
9224;SDS011;4647;48.072;11.616;2022-12-11T08:54:13;19.33;;;13.47;;
9224;SDS011;4647;48.072;11.616;2022-12-11T08:56:40;21.37;;;13.93;;
9224;SDS011;4647;48.072;11.616;2022-12-11T08:59:07;22.43;;;13.77;;
9224;SDS011;4647;48.072;11.616;2022-12-11T09:01:34;19.70;;;13.37;;
9224;SDS011;4647;48.072;11.616;2022-12-11T09:04:01;20.17;;;14.20;;
9224;SDS011;4647;48.072;11.616;2022-12-11T09:06:28;17.90;;;13.33;;
9224;SDS011;4647;48.072;11.616;2022-12-11T09:08:57;19.17;;;14.07;;
9224;SDS011;4647;48.072;11.616;2022-12-11T09:11:27;18.57;;;12.47;;
9224;SDS011;4647;48.072;11.616;2022-12-11T09:13:55;18.93;;;12.30;;
9224;SDS011;4647;48.072;11.616;2022-12-11T09:16:23;17.80;;;12.43;;
9224;SDS011;4647;48.072;11.616;2022-12-11T09:18:52;17.27;;;12.13;;
9224;SDS011;4647;48.072;11.616;2022-12-11T09:21:21;17.70;;;12.50;;
9224;SDS011;4647;48.072;11.616;2022-12-11T09:23:51;19.80;;;11.83;;
9224;SDS011;4647;48.072;11.616;2022-12-11T09:26:18;17.97;;;12.00;;
9224;SDS011;4647;48.072;11.616;2022-12-11T09:28:47;15.70;;;11.57;;
9224;SDS011;4647;48.072;11.616;2022-12-11T09:31:17;15.20;;;11.17;;
9224;SDS011;4647;48.072;11.616;2022-12-11T09:33:47;18.67;;;11.70;;
9224;SDS011;4647;48.072;11.616;2022-12-11T09:36:14;14.20;;;10.90;;
9224;SDS011;4647;48.072;11.616;2022-12-11T09:38:41;14.00;;;10.73;;
9224;SDS011;4647;48.072;11.616;2022-12-11T09:44:14;13.70;;;10.57;;
9224;SDS011;4647;48.072;11.616;2022-12-11T09:46:44;12.70;;;9.60;;
9224;SDS011;4647;48.072;11.616;2022-12-11T09:49:15;13.30;;;10.30;;
9224;SDS011;4647;48.072;11.616;2022-12-11T09:51:51;11.27;;;8.87;;
9224;SDS011;4647;48.072;11.616;2022-12-11T09:54:25;12.27;;;8.97;;
9224;SDS011;4647;48.072;11.616;2022-12-11T09:56:55;11.97;;;8.93;;
9224;SDS011;4647;48.072;11.616;2022-12-11T09:59:31;11.90;;;9.20;;
9224;SDS011;4647;48.072;11.616;2022-12-11T10:02:12;11.00;;;8.63;;
9224;SDS011;4647;48.072;11.616;2022-12-11T10:04:49;12.33;;;9.60;;
9224;SDS011;4647;48.072;11.616;2022-12-11T10:07:26;10.73;;;8.80;;
9224;SDS011;4647;48.072;11.616;2022-12-11T10:10:02;10.93;;;8.47;;
9224;SDS011;4647;48.072;11.616;2022-12-11T10:12:40;10.63;;;8.37;;
9224;SDS011;4647;48.072;11.616;2022-12-11T10:15:18;11.37;;;8.37;;
9224;SDS011;4647;48.072;11.616;2022-12-11T10:17:59;9.50;;;7.53;;
9224;SDS011;4647;48.072;11.616;2022-12-11T10:20:27;9.30;;;7.83;;
9224;SDS011;4647;48.072;11.616;2022-12-11T10:22:59;10.23;;;7.77;;
9224;SDS011;4647;48.072;11.616;2022-12-11T10:25:28;9.40;;;7.37;;
9224;SDS011;4647;48.072;11.616;2022-12-11T10:27:57;10.03;;;7.23;;
9224;SDS011;4647;48.072;11.616;2022-12-11T10:30:29;8.37;;;7.13;;
9224;SDS011;4647;48.072;11.616;2022-12-11T10:33:03;9.83;;;7.70;;
9224;SDS011;4647;48.072;11.616;2022-12-11T10:35:38;10.23;;;7.50;;
9224;SDS011;4647;48.072;11.616;2022-12-11T10:38:10;9.23;;;7.30;;
9224;SDS011;4647;48.072;11.616;2022-12-11T10:40:41;10.87;;;7.73;;
9224;SDS011;4647;48.072;11.616;2022-12-11T10:43:10;9.17;;;6.63;;
9224;SDS011;4647;48.072;11.616;2022-12-11T10:45:39;10.10;;;7.43;;
9224;SDS011;4647;48.072;11.616;2022-12-11T10:48:15;9.20;;;7.07;;
9224;SDS011;4647;48.072;11.616;2022-12-11T10:50:42;9.87;;;7.40;;
9224;SDS011;4647;48.072;11.616;2022-12-11T10:53:21;10.53;;;7.23;;
9224;SDS011;4647;48.072;11.616;2022-12-11T10:55:49;9.43;;;6.67;;
9224;SDS011;4647;48.072;11.616;2022-12-11T10:58:17;8.57;;;6.63;;
9224;SDS011;4647;48.072;11.616;2022-12-11T11:00:48;9.93;;;6.97;;
9224;SDS011;4647;48.072;11.616;2022-12-11T11:03:28;9.57;;;6.70;;
9224;SDS011;4647;48.072;11.616;2022-12-11T11:06:05;9.60;;;6.80;;
9224;SDS011;4647;48.072;11.616;2022-12-11T11:08:39;8.07;;;6.43;;
9224;SDS011;4647;48.072;11.616;2022-12-11T11:11:13;8.87;;;6.73;;
9224;SDS011;4647;48.072;11.616;2022-12-11T11:13:46;8.23;;;6.53;;
9224;SDS011;4647;48.072;11.616;2022-12-11T11:16:15;9.80;;;7.17;;
9224;SDS011;4647;48.072;11.616;2022-12-11T11:18:48;9.80;;;7.03;;
9224;SDS011;4647;48.072;11.616;2022-12-11T11:21:18;9.43;;;7.53;;
9224;SDS011;4647;48.072;11.616;2022-12-11T11:23:47;8.73;;;6.73;;
9224;SDS011;4647;48.072;11.616;2022-12-11T11:26:15;8.97;;;6.90;;
9224;SDS011;4647;48.072;11.616;2022-12-11T11:28:46;8.07;;;6.57;;
9224;SDS011;4647;48.072;11.616;2022-12-11T11:31:15;8.50;;;6.63;;
9224;SDS011;4647;48.072;11.616;2022-12-11T11:33:45;10.50;;;7.50;;
9224;SDS011;4647;48.072;11.616;2022-12-11T11:36:20;9.47;;;6.90;;
9224;SDS011;4647;48.072;11.616;2022-12-11T11:38:49;8.80;;;6.37;;
9224;SDS011;4647;48.072;11.616;2022-12-11T11:41:30;9.00;;;7.20;;
9224;SDS011;4647;48.072;11.616;2022-12-11T11:44:03;9.70;;;7.47;;
9224;SDS011;4647;48.072;11.616;2022-12-11T11:46:34;10.03;;;7.63;;
9224;SDS011;4647;48.072;11.616;2022-12-11T11:49:06;8.67;;;7.13;;
9224;SDS011;4647;48.072;11.616;2022-12-11T11:51:40;12.03;;;8.30;;
9224;SDS011;4647;48.072;11.616;2022-12-11T11:54:14;10.60;;;8.30;;
9224;SDS011;4647;48.072;11.616;2022-12-11T11:56:49;11.43;;;8.20;;
9224;SDS011;4647;48.072;11.616;2022-12-11T11:59:20;11.77;;;8.27;;
9224;SDS011;4647;48.072;11.616;2022-12-11T12:01:55;11.33;;;8.83;;
9224;SDS011;4647;48.072;11.616;2022-12-11T12:04:23;11.37;;;8.80;;
9224;SDS011;4647;48.072;11.616;2022-12-11T12:06:58;15.00;;;8.97;;
9224;SDS011;4647;48.072;11.616;2022-12-11T12:09:39;9.70;;;7.90;;
9224;SDS011;4647;48.072;11.616;2022-12-11T12:12:18;11.90;;;9.40;;
9224;SDS011;4647;48.072;11.616;2022-12-11T12:14:58;11.27;;;8.17;;
9224;SDS011;4647;48.072;11.616;2022-12-11T12:17:37;14.20;;;9.57;;
9224;SDS011;4647;48.072;11.616;2022-12-11T12:20:13;11.73;;;8.93;;
9224;SDS011;4647;48.072;11.616;2022-12-11T12:22:48;11.80;;;8.50;;
9224;SDS011;4647;48.072;11.616;2022-12-11T12:25:23;12.27;;;8.37;;
9224;SDS011;4647;48.072;11.616;2022-12-11T12:27:55;11.73;;;8.33;;
9224;SDS011;4647;48.072;11.616;2022-12-11T12:30:34;9.07;;;7.27;;
9224;SDS011;4647;48.072;11.616;2022-12-11T12:33:16;10.67;;;7.63;;
9224;SDS011;4647;48.072;11.616;2022-12-11T12:35:53;11.20;;;7.80;;
9224;SDS011;4647;48.072;11.616;2022-12-11T12:38:28;10.83;;;7.93;;
9224;SDS011;4647;48.072;11.616;2022-12-11T12:41:02;10.60;;;8.27;;
9224;SDS011;4647;48.072;11.616;2022-12-11T12:43:45;9.97;;;7.13;;
9224;SDS011;4647;48.072;11.616;2022-12-11T12:46:26;9.43;;;7.40;;
9224;SDS011;4647;48.072;11.616;2022-12-11T12:49:07;10.03;;;7.03;;
9224;SDS011;4647;48.072;11.616;2022-12-11T12:51:39;9.00;;;6.73;;
9224;SDS011;4647;48.072;11.616;2022-12-11T12:54:08;8.10;;;6.43;;
9224;SDS011;4647;48.072;11.616;2022-12-11T12:56:40;9.30;;;7.07;;
9224;SDS011;4647;48.072;11.616;2022-12-11T12:59:17;9.23;;;6.93;;
9224;SDS011;4647;48.072;11.616;2022-12-11T13:01:46;9.47;;;6.30;;
9224;SDS011;4647;48.072;11.616;2022-12-11T13:04:26;9.80;;;6.87;;
9224;SDS011;4647;48.072;11.616;2022-12-11T13:07:09;8.90;;;6.10;;
9224;SDS011;4647;48.072;11.616;2022-12-11T13:09:39;10.57;;;7.60;;
9224;SDS011;4647;48.072;11.616;2022-12-11T13:12:11;7.73;;;5.97;;
9224;SDS011;4647;48.072;11.616;2022-12-11T13:14:39;8.97;;;6.77;;
9224;SDS011;4647;48.072;11.616;2022-12-11T13:17:21;7.80;;;6.30;;
9224;SDS011;4647;48.072;11.616;2022-12-11T13:20:04;8.17;;;6.70;;
9224;SDS011;4647;48.072;11.616;2022-12-11T13:22:46;9.33;;;6.40;;
9224;SDS011;4647;48.072;11.616;2022-12-11T13:25:23;8.37;;;7.07;;
9224;SDS011;4647;48.072;11.616;2022-12-11T13:27:52;8.40;;;6.77;;
9224;SDS011;4647;48.072;11.616;2022-12-11T13:30:30;8.70;;;6.93;;
9224;SDS011;4647;48.072;11.616;2022-12-11T13:33:00;8.13;;;6.53;;
9224;SDS011;4647;48.072;11.616;2022-12-11T13:35:31;8.87;;;6.70;;
9224;SDS011;4647;48.072;11.616;2022-12-11T13:38:02;8.77;;;6.73;;
9224;SDS011;4647;48.072;11.616;2022-12-11T13:40:34;9.80;;;6.37;;
9224;SDS011;4647;48.072;11.616;2022-12-11T13:43:05;9.83;;;7.23;;
9224;SDS011;4647;48.072;11.616;2022-12-11T13:45:38;8.90;;;7.10;;
9224;SDS011;4647;48.072;11.616;2022-12-11T13:48:13;9.27;;;7.20;;
9224;SDS011;4647;48.072;11.616;2022-12-11T13:50:47;8.93;;;7.40;;
9224;SDS011;4647;48.072;11.616;2022-12-11T13:53:16;10.20;;;8.00;;
9224;SDS011;4647;48.072;11.616;2022-12-11T13:55:44;10.83;;;8.10;;
9224;SDS011;4647;48.072;11.616;2022-12-11T13:58:14;11.07;;;8.10;;
9224;SDS011;4647;48.072;11.616;2022-12-11T14:00:42;11.00;;;8.40;;
9224;SDS011;4647;48.072;11.616;2022-12-11T14:03:21;10.73;;;8.30;;
9224;SDS011;4647;48.072;11.616;2022-12-11T14:05:50;10.00;;;7.80;;
9224;SDS011;4647;48.072;11.616;2022-12-11T14:08:19;8.73;;;7.30;;
9224;SDS011;4647;48.072;11.616;2022-12-11T14:10:50;10.80;;;7.30;;
9224;SDS011;4647;48.072;11.616;2022-12-11T14:13:18;9.53;;;7.00;;
9224;SDS011;4647;48.072;11.616;2022-12-11T14:15:48;9.63;;;7.80;;
9224;SDS011;4647;48.072;11.616;2022-12-11T14:18:17;10.17;;;7.10;;
9224;SDS011;4647;48.072;11.616;2022-12-11T14:20:53;11.07;;;7.77;;
9224;SDS011;4647;48.072;11.616;2022-12-11T14:23:22;13.07;;;9.00;;
9224;SDS011;4647;48.072;11.616;2022-12-11T14:25:51;11.43;;;8.23;;
9224;SDS011;4647;48.072;11.616;2022-12-11T14:28:19;13.77;;;8.93;;
9224;SDS011;4647;48.072;11.616;2022-12-11T14:30:48;11.13;;;8.53;;
9224;SDS011;4647;48.072;11.616;2022-12-11T14:33:16;12.10;;;8.77;;
9224;SDS011;4647;48.072;11.616;2022-12-11T14:35:47;13.10;;;8.93;;
9224;SDS011;4647;48.072;11.616;2022-12-11T14:38:17;10.67;;;9.13;;
9224;SDS011;4647;48.072;11.616;2022-12-11T14:40:49;11.57;;;9.27;;
9224;SDS011;4647;48.072;11.616;2022-12-11T14:43:20;11.13;;;9.00;;
9224;SDS011;4647;48.072;11.616;2022-12-11T14:45:49;11.87;;;8.80;;
9224;SDS011;4647;48.072;11.616;2022-12-11T14:48:24;14.17;;;9.77;;
9224;SDS011;4647;48.072;11.616;2022-12-11T14:50:55;12.87;;;9.13;;
9224;SDS011;4647;48.072;11.616;2022-12-11T14:53:26;10.63;;;8.13;;
9224;SDS011;4647;48.072;11.616;2022-12-11T14:55:56;11.90;;;9.10;;
9224;SDS011;4647;48.072;11.616;2022-12-11T14:58:27;13.60;;;8.90;;
9224;SDS011;4647;48.072;11.616;2022-12-11T15:00:55;11.67;;;8.93;;
9224;SDS011;4647;48.072;11.616;2022-12-11T15:03:23;13.13;;;10.17;;